In Rescue
 
Open Full Screen Window  High Contrast Mode
Wind Gusting 00 knots
07
September 19, 2019 5:32 PM EDT
Weather Information
Wind Direction
  170 °
Wind Speed
  07 kt (8 mph)
Wind Gust
  00 kt (0 mph)
Altimeter
30.11 in
Visibility
10 SM
Temperature
29° C
84° F
Dewpoint
15° C
59° F
Humidity
43%
1hr Rain Fall
00.00 in.
24hr Rain Fall
00.00 in.
Sky Condition
Clear
VFR

METAR KMRT 192132Z AUTO 17007KT 10SM CLR 29/15 A3011 RMK AO2 T02880147

FAA Disclaimer: The data displayed is for advisory purposes only and is not to be used for flight planning or operations.